createdAt,value
2016-11-13T00:00:22.108Z,0
2016-11-13T00:01:32.151Z,0
2016-11-13T00:02:42.284Z,0
2016-11-13T00:03:52.334Z,0
2016-11-13T00:05:02.043Z,0
2016-11-13T00:06:11.748Z,0
2016-11-13T00:07:21.207Z,0
2016-11-13T00:08:30.600Z,0
2016-11-13T00:09:40.990Z,0
2016-11-13T00:10:51.129Z,0
2016-11-13T00:12:01.570Z,0
2016-11-13T00:13:11.599Z,0
2016-11-13T00:14:21.649Z,0
2016-11-13T00:15:31.360Z,0
2016-11-13T00:16:41.379Z,0
2016-11-13T00:17:51.767Z,0
2016-11-13T00:19:02.119Z,0
2016-11-13T00:20:11.852Z,0
2016-11-13T00:21:21.882Z,0
2016-11-13T00:22:31.588Z,0
2016-11-13T00:23:41.101Z,0
2016-11-13T00:24:50.501Z,0
2016-11-13T00:26:00.509Z,0
2016-11-13T00:27:10.850Z,0
2016-11-13T00:28:20.881Z,0
2016-11-13T00:29:31.003Z,0
2016-11-13T00:30:40.721Z,0
2016-11-13T00:31:50.439Z,0
2016-11-13T00:33:00.130Z,0
2016-11-13T00:34:09.529Z,0
2016-11-13T00:35:19.679Z,0
2016-11-13T00:36:29.083Z,0
2016-11-13T00:37:39.439Z,0
2016-11-13T00:38:49.153Z,0
2016-11-13T00:39:59.189Z,0
2016-11-13T00:41:08.920Z,0
2016-11-13T00:42:18.936Z,0
2016-11-13T00:43:28.950Z,0
2016-11-13T00:44:39.024Z,0
2016-11-13T00:45:48.761Z,0
2016-11-13T00:46:58.776Z,0
2016-11-13T00:48:08.491Z,0
2016-11-13T00:49:18.530Z,0
2016-11-13T00:50:27.410Z,0
2016-11-13T00:51:37.449Z,0
2016-11-13T00:52:47.182Z,0
2016-11-13T00:53:57.502Z,0
2016-11-13T00:55:06.926Z,0
2016-11-13T00:56:16.640Z,0
2016-11-13T00:57:26.700Z,0
2016-11-13T00:58:36.794Z,0
2016-11-13T00:59:46.263Z,0
2016-11-13T01:00:56.281Z,0
2016-11-13T01:02:06.006Z,0
2016-11-13T01:03:15.710Z,0
2016-11-13T01:04:25.781Z,0
2016-11-13T01:05:35.494Z,0
2016-11-13T01:06:45.520Z,0
2016-11-13T01:07:55.859Z,0
2016-11-13T01:09:06.351Z,0
2016-11-13T01:10:15.879Z,0
2016-11-13T01:11:26.373Z,0
2016-11-13T01:12:36.402Z,0
2016-11-13T01:13:46.875Z,0
2016-11-13T01:14:56.610Z,0
2016-11-13T01:16:06.431Z,0
2016-11-13T01:17:16.783Z,0
2016-11-13T01:18:27.154Z,0
2016-11-13T01:19:36.581Z,0
2016-11-13T01:20:46.930Z,0
2016-11-13T01:21:56.342Z,0
2016-11-13T01:23:06.421Z,0
2016-11-13T01:24:16.770Z,0
2016-11-13T01:25:26.485Z,0
2016-11-13T01:26:36.528Z,0
2016-11-13T01:27:46.552Z,0
2016-11-13T01:28:56.266Z,0
2016-11-13T01:30:06.289Z,0
2016-11-13T01:31:16.318Z,0
2016-11-13T01:32:26.079Z,0
2016-11-13T01:33:36.108Z,0
2016-11-13T01:34:46.208Z,0
2016-11-13T01:35:55.919Z,0
2016-11-13T01:37:05.650Z,0
2016-11-13T01:38:15.718Z,0
2016-11-13T01:39:25.472Z,0
2016-11-13T01:40:35.191Z,0
2016-11-13T01:41:45.510Z,0
2016-11-13T01:42:55.211Z,0
2016-11-13T01:44:05.648Z,0
2016-11-13T01:45:16.069Z,0
2016-11-13T01:46:25.560Z,0
2016-11-13T01:47:34.944Z,0
2016-11-13T01:48:44.661Z,0
2016-11-13T01:49:55.001Z,0
2016-11-13T01:51:05.330Z,0
2016-11-13T01:52:15.035Z,0
2016-11-13T01:53:25.055Z,0
2016-11-13T01:54:35.374Z,0
2016-11-13T01:55:44.765Z,0
2016-11-13T01:56:54.801Z,0
2016-11-13T01:58:04.820Z,0
2016-11-13T01:59:14.518Z,0
2016-11-13T02:00:24.596Z,0
2016-11-13T02:01:34.749Z,0
2016-11-13T02:02:44.804Z,0
2016-11-13T02:03:54.208Z,0
2016-11-13T02:05:03.599Z,0
2016-11-13T02:06:13.315Z,0
2016-11-13T02:07:22.708Z,0
2016-11-13T02:08:32.730Z,0
2016-11-13T02:09:42.123Z,0
2016-11-13T02:10:52.140Z,0
2016-11-13T02:12:02.485Z,0
2016-11-13T02:13:11.570Z,0
2016-11-13T02:14:21.707Z,0
2016-11-13T02:15:32.069Z,0
2016-11-13T02:16:41.799Z,0
2016-11-13T02:17:52.130Z,0
2016-11-13T02:19:01.898Z,0
2016-11-13T02:20:11.045Z,0
2016-11-13T02:21:21.068Z,0
2016-11-13T02:22:31.386Z,0
2016-11-13T02:23:41.119Z,0
2016-11-13T02:24:51.218Z,0
2016-11-13T02:26:01.231Z,0
2016-11-13T02:27:11.245Z,0
2016-11-13T02:28:21.245Z,0
2016-11-13T02:29:30.949Z,0
2016-11-13T02:30:41.128Z,0
2016-11-13T02:31:50.535Z,0
2016-11-13T02:33:00.877Z,0
2016-11-13T02:34:09.968Z,0
2016-11-13T02:35:19.672Z,0
2016-11-13T02:36:30.056Z,0
2016-11-13T02:37:39.747Z,0
2016-11-13T02:38:49.890Z,0
2016-11-13T02:39:59.327Z,0
2016-11-13T02:41:09.338Z,0
2016-11-13T02:42:19.343Z,0
2016-11-13T02:43:29.442Z,0
2016-11-13T02:44:39.194Z,0
2016-11-13T02:45:49.208Z,0
2016-11-13T02:46:58.915Z,0
2016-11-13T02:48:08.349Z,0
2016-11-13T02:49:18.454Z,0
2016-11-13T02:50:27.889Z,0
2016-11-13T02:51:37.916Z,0
2016-11-13T02:52:48.013Z,0
2016-11-13T02:53:57.450Z,0
2016-11-13T02:55:06.927Z,0
2016-11-13T02:56:16.987Z,0
2016-11-13T02:57:27.005Z,0
2016-11-13T02:58:37.197Z,0
2016-11-13T02:59:47.339Z,0
2016-11-13T03:00:57.650Z,0
2016-11-13T03:02:07.677Z,0
2016-11-13T03:03:17.364Z,0
2016-11-13T03:04:27.203Z,0
2016-11-13T03:05:37.526Z,0
2016-11-13T03:06:46.945Z,0
2016-11-13T03:07:57.319Z,0
2016-11-13T03:09:07.367Z,0
2016-11-13T03:10:17.074Z,0
2016-11-13T03:11:26.468Z,0
2016-11-13T03:12:36.166Z,0
2016-11-13T03:13:45.554Z,0
2016-11-13T03:14:55.552Z,0
2016-11-13T03:16:05.248Z,0
2016-11-13T03:17:15.632Z,0
2016-11-13T03:18:25.946Z,0
2016-11-13T03:19:36.277Z,0
2016-11-13T03:20:45.656Z,0
2016-11-13T03:21:55.389Z,0
2016-11-13T03:23:04.779Z,0
2016-11-13T03:24:14.474Z,0
2016-11-13T03:25:24.199Z,0
2016-11-13T03:26:33.919Z,0
2016-11-13T03:27:44.257Z,0
2016-11-13T03:28:54.568Z,0
2016-11-13T03:30:04.264Z,0
2016-11-13T03:31:14.289Z,0
2016-11-13T03:32:24.295Z,0
2016-11-13T03:33:33.684Z,0
2016-11-13T03:34:43.696Z,0
2016-11-13T03:35:53.087Z,0
2016-11-13T03:37:03.499Z,0
2016-11-13T03:38:13.188Z,0
2016-11-13T03:39:23.237Z,0
2016-11-13T03:40:32.626Z,0
2016-11-13T03:41:42.037Z,0
2016-11-13T03:42:52.346Z,0
2016-11-13T03:44:02.676Z,0
2016-11-13T03:45:12.372Z,0
2016-11-13T03:46:22.077Z,0
2016-11-13T03:47:31.468Z,0
2016-11-13T03:48:41.812Z,0
2016-11-13T03:49:51.825Z,0
2016-11-13T03:51:01.908Z,0
2016-11-13T03:52:11.684Z,0
2016-11-13T03:53:21.844Z,0
2016-11-13T03:54:32.210Z,0
2016-11-13T03:55:42.266Z,0
2016-11-13T03:56:51.676Z,0
2016-11-13T03:58:01.697Z,0
2016-11-13T03:59:11.126Z,0
2016-11-13T04:00:20.836Z,0
2016-11-13T04:01:31.297Z,0
2016-11-13T04:02:40.719Z,0
2016-11-13T04:03:50.743Z,0
2016-11-13T04:05:00.441Z,0
2016-11-13T04:06:10.185Z,0
2016-11-13T04:07:19.628Z,0
2016-11-13T04:08:29.627Z,0
2016-11-13T04:09:39.712Z,0
2016-11-13T04:10:49.475Z,0
2016-11-13T04:11:59.177Z,0
2016-11-13T04:13:09.637Z,0
2016-11-13T04:14:19.660Z,0
2016-11-13T04:15:29.676Z,0
2016-11-13T04:16:39.438Z,0
2016-11-13T04:17:49.468Z,0
2016-11-13T04:18:59.468Z,0
2016-11-13T04:20:09.468Z,0
2016-11-13T04:21:18.926Z,0
2016-11-13T04:22:29.251Z,0
2016-11-13T04:23:39.270Z,0
2016-11-13T04:24:49.598Z,0
2016-11-13T04:25:59.344Z,0
2016-11-13T04:27:09.664Z,0
2016-11-13T04:28:19.657Z,0
2016-11-13T04:29:29.375Z,0
2016-11-13T04:30:38.756Z,0
2016-11-13T04:31:49.070Z,0
2016-11-13T04:32:59.171Z,0
2016-11-13T04:34:08.568Z,0
2016-11-13T04:35:17.966Z,0
2016-11-13T04:36:28.328Z,0
2016-11-13T04:37:38.705Z,0
2016-11-13T04:38:48.765Z,0
2016-11-13T04:39:58.193Z,0
2016-11-13T04:41:07.602Z,0
2016-11-13T04:42:17.611Z,0
2016-11-13T04:43:27.745Z,0
2016-11-13T04:44:37.147Z,0
2016-11-13T04:45:46.854Z,0
2016-11-13T04:46:56.993Z,0
2016-11-13T04:48:06.418Z,0
2016-11-13T04:49:15.805Z,0
2016-11-13T04:50:24.901Z,0
2016-11-13T04:51:34.339Z,0
2016-11-13T04:52:44.699Z,0
2016-11-13T04:53:54.417Z,0
2016-11-13T04:55:04.482Z,0
2016-11-13T04:56:13.865Z,0
2016-11-13T04:57:23.950Z,0
2016-11-13T04:58:33.972Z,0
2016-11-13T04:59:43.696Z,0
2016-11-13T05:00:53.867Z,0
2016-11-13T05:02:03.279Z,0
2016-11-13T05:03:13.283Z,0
2016-11-13T05:04:22.984Z,0
2016-11-13T05:05:32.367Z,0
2016-11-13T05:06:41.816Z,0
2016-11-13T05:07:51.827Z,0
2016-11-13T05:09:02.186Z,0
2016-11-13T05:10:12.427Z,0
2016-11-13T05:11:22.439Z,0
2016-11-13T05:12:32.199Z,0
2016-11-13T05:13:42.677Z,0
2016-11-13T05:14:52.679Z,0
2016-11-13T05:16:02.725Z,0
2016-11-13T05:17:12.549Z,0
2016-11-13T05:18:22.530Z,0
2016-11-13T05:19:32.530Z,0
2016-11-13T05:20:42.580Z,0
2016-11-13T05:21:52.280Z,0
2016-11-13T05:23:02.599Z,0
2016-11-13T05:24:12.316Z,0
2016-11-13T05:25:22.399Z,0
2016-11-13T05:26:32.101Z,0
2016-11-13T05:27:42.247Z,0
2016-11-13T05:28:52.018Z,0
2016-11-13T05:30:01.087Z,0
2016-11-13T05:31:11.093Z,0
2016-11-13T05:32:20.791Z,0
2016-11-13T05:33:31.218Z,0
2016-11-13T05:34:40.914Z,0
2016-11-13T05:35:50.914Z,0
2016-11-13T05:37:00.957Z,0
2016-11-13T05:38:11.129Z,0
2016-11-13T05:39:21.226Z,0
2016-11-13T05:40:31.236Z,0
2016-11-13T05:41:40.669Z,0
2016-11-13T05:42:50.068Z,0
2016-11-13T05:43:59.854Z,0
2016-11-13T05:45:09.546Z,0
2016-11-13T05:46:19.231Z,0
2016-11-13T05:47:29.207Z,0
2016-11-13T05:48:39.529Z,0
2016-11-13T05:49:49.139Z,0
2016-11-13T05:50:58.857Z,0
2016-11-13T05:52:08.558Z,0
2016-11-13T05:53:18.367Z,0
2016-11-13T05:54:28.129Z,0
2016-11-13T05:55:37.948Z,0
2016-11-13T05:56:47.046Z,0
2016-11-13T05:57:57.398Z,0
2016-11-13T05:59:07.672Z,0
2016-11-13T06:00:17.060Z,0
2016-11-13T06:01:26.447Z,0
2016-11-13T06:02:36.497Z,0
2016-11-13T06:03:46.510Z,0
2016-11-13T06:04:56.596Z,0
2016-11-13T06:06:06.609Z,0
2016-11-13T06:07:16.625Z,0
2016-11-13T06:08:26.047Z,0
2016-11-13T06:09:36.086Z,0
2016-11-13T06:10:46.083Z,0
2016-11-13T06:11:55.796Z,0
2016-11-13T06:13:05.814Z,0
2016-11-13T06:14:15.854Z,0
2016-11-13T06:15:24.680Z,0
2016-11-13T06:16:34.316Z,0
2016-11-13T06:17:44.120Z,0
2016-11-13T06:18:54.126Z,0
2016-11-13T06:20:04.123Z,0
2016-11-13T06:21:14.126Z,0
2016-11-13T06:22:24.134Z,0
2016-11-13T06:23:33.561Z,0
2016-11-13T06:24:43.585Z,0
2016-11-13T06:25:53.289Z,0
2016-11-13T06:27:03.527Z,0
2016-11-13T06:28:13.279Z,0
2016-11-13T06:29:23.369Z,0
2016-11-13T06:30:33.065Z,0
2016-11-13T06:31:43.115Z,0
2016-11-13T06:32:53.127Z,0
2016-11-13T06:34:02.612Z,0
2016-11-13T06:35:12.102Z,0
2016-11-13T06:36:21.796Z,0
2016-11-13T06:37:31.948Z,0
2016-11-13T06:38:41.058Z,0
2016-11-13T06:39:51.377Z,0
2016-11-13T06:41:01.398Z,0
2016-11-13T06:42:11.729Z,0
2016-11-13T06:43:22.049Z,0
2016-11-13T06:44:32.366Z,0
2016-11-13T06:45:41.471Z,0
2016-11-13T06:46:51.531Z,0
2016-11-13T06:48:01.598Z,0
2016-11-13T06:49:11.058Z,0
2016-11-13T06:50:20.854Z,0
2016-11-13T06:51:30.552Z,0
2016-11-13T06:52:40.577Z,0
2016-11-13T06:53:50.269Z,0
2016-11-13T06:55:00.272Z,0
2016-11-13T06:56:10.256Z,0
2016-11-13T06:57:20.256Z,5
2016-11-13T06:58:29.680Z,5
2016-11-13T06:59:39.379Z,5
2016-11-13T07:00:49.408Z,5
2016-11-13T07:01:59.178Z,5
2016-11-13T07:03:09.188Z,5
2016-11-13T07:04:19.499Z,5
2016-11-13T07:05:29.209Z,5
2016-11-13T07:06:39.275Z,5
2016-11-13T07:07:49.290Z,5
2016-11-13T07:08:59.097Z,5
2016-11-13T07:10:08.824Z,5
2016-11-13T07:11:19.149Z,5
2016-11-13T07:12:29.294Z,5
2016-11-13T07:13:39.043Z,5
2016-11-13T07:14:48.747Z,5
2016-11-13T07:15:58.467Z,5
2016-11-13T07:17:08.478Z,10
2016-11-13T07:18:17.888Z,10
2016-11-13T07:19:27.962Z,10
2016-11-13T07:20:37.989Z,10
2016-11-13T07:21:48.360Z,10
2016-11-13T07:22:58.467Z,10
2016-11-13T07:24:08.184Z,10
2016-11-13T07:25:17.571Z,10
2016-11-13T07:26:27.683Z,10
2016-11-13T07:27:37.400Z,10
2016-11-13T07:28:46.810Z,10
2016-11-13T07:29:56.933Z,10
2016-11-13T07:31:06.467Z,10
2016-11-13T07:32:16.189Z,15
2016-11-13T07:33:25.909Z,15
2016-11-13T07:34:36.251Z,15
2016-11-13T07:35:46.261Z,15
2016-11-13T07:36:55.979Z,15
2016-11-13T07:38:06.440Z,15
2016-11-13T07:39:16.777Z,15
2016-11-13T07:40:26.819Z,15
2016-11-13T07:41:37.158Z,15
2016-11-13T07:42:47.154Z,15
2016-11-13T07:43:56.878Z,15
2016-11-13T07:45:06.887Z,20
2016-11-13T07:46:17.048Z,20
2016-11-13T07:47:27.109Z,20
2016-11-13T07:48:37.434Z,20
2016-11-13T07:49:47.899Z,20
2016-11-13T07:50:58.318Z,20
2016-11-13T07:52:08.304Z,20
2016-11-13T07:53:18.002Z,20
2016-11-13T07:54:28.333Z,20
2016-11-13T07:55:38.047Z,20
2016-11-13T07:56:48.421Z,20
2016-11-13T07:57:58.450Z,25
2016-11-13T07:59:08.571Z,25
2016-11-13T08:00:17.980Z,25
2016-11-13T08:01:28.386Z,25
2016-11-13T08:02:38.159Z,25
2016-11-13T08:03:48.324Z,25
2016-11-13T08:04:58.478Z,25
2016-11-13T08:06:08.938Z,25
2016-11-13T08:07:19.208Z,25
2016-11-13T08:08:29.357Z,25
2016-11-13T08:09:39.659Z,25
2016-11-13T08:10:49.388Z,25
2016-11-13T08:11:58.325Z,30
2016-11-13T08:13:08.679Z,30
2016-11-13T08:14:19.039Z,30
2016-11-13T08:15:29.060Z,30
2016-11-13T08:16:39.065Z,30
2016-11-13T08:17:49.183Z,30
2016-11-13T08:18:59.628Z,30
2016-11-13T08:20:09.373Z,30
2016-11-13T08:21:19.480Z,30
2016-11-13T08:22:29.509Z,30
2016-11-13T08:23:39.986Z,30
2016-11-13T08:24:50.194Z,35
2016-11-13T08:26:00.303Z,35
2016-11-13T08:27:10.069Z,35
2016-11-13T08:28:20.823Z,35
2016-11-13T08:29:30.848Z,35
2016-11-13T08:30:41.308Z,35
2016-11-13T08:31:51.036Z,35
2016-11-13T08:33:00.761Z,35
2016-11-13T08:34:10.161Z,35
2016-11-13T08:35:20.990Z,35
2016-11-13T08:36:31.980Z,35
2016-11-13T08:37:41.392Z,35
2016-11-13T08:38:51.124Z,35
2016-11-13T08:40:01.582Z,35
2016-11-13T08:41:11.317Z,40
2016-11-13T08:42:21.359Z,40
2016-11-13T08:43:31.068Z,40
2016-11-13T08:44:41.129Z,40
2016-11-13T08:45:50.222Z,40
2016-11-13T08:46:59.937Z,40
2016-11-13T08:48:09.951Z,40
2016-11-13T08:49:20.270Z,40
2016-11-13T08:50:31.026Z,40
2016-11-13T08:51:41.129Z,40
2016-11-13T08:52:51.318Z,45
2016-11-13T08:54:01.140Z,45
2016-11-13T08:55:10.978Z,45
2016-11-13T08:56:21.152Z,45
2016-11-13T08:57:31.639Z,45
2016-11-13T08:58:42.030Z,45
2016-11-13T08:59:52.207Z,45
2016-11-13T09:01:02.249Z,45
2016-11-13T09:02:11.962Z,50
2016-11-13T09:03:20.750Z,50
2016-11-13T09:04:31.050Z,50
2016-11-13T09:05:41.388Z,50
2016-11-13T09:06:51.308Z,50
2016-11-13T09:08:01.337Z,50
2016-11-13T09:09:11.159Z,50
2016-11-13T09:10:21.238Z,50
2016-11-13T09:11:31.186Z,50
2016-11-13T09:12:41.547Z,55
2016-11-13T09:13:51.424Z,55
2016-11-13T09:15:00.825Z,55
2016-11-13T09:16:10.873Z,55
2016-11-13T09:17:21.376Z,55
2016-11-13T09:18:31.398Z,55
2016-11-13T09:19:41.489Z,55
2016-11-13T09:20:51.649Z,60
2016-11-13T09:22:01.347Z,60
2016-11-13T09:23:10.769Z,60
2016-11-13T09:24:21.507Z,60
2016-11-13T09:25:31.295Z,60
2016-11-13T09:26:41.623Z,60
2016-11-13T09:27:51.655Z,60
2016-11-13T09:29:01.524Z,60
2016-11-13T09:30:11.539Z,60
2016-11-13T09:31:21.585Z,60
2016-11-13T09:32:31.393Z,55
2016-11-13T09:33:41.489Z,55
2016-11-13T09:34:51.913Z,55
2016-11-13T09:36:02.247Z,55
2016-11-13T09:37:12.031Z,55
2016-11-13T09:38:22.106Z,55
2016-11-13T09:39:32.718Z,55
2016-11-13T09:40:43.073Z,55
2016-11-13T09:41:52.474Z,55
2016-11-13T09:43:02.485Z,55
2016-11-13T09:44:12.209Z,55
2016-11-13T09:45:22.534Z,55
2016-11-13T09:46:31.916Z,55
2016-11-13T09:47:41.628Z,55
2016-11-13T09:48:51.529Z,55
2016-11-13T09:50:01.625Z,55
2016-11-13T09:51:11.608Z,55
2016-11-13T09:52:21.935Z,55
2016-11-13T09:53:31.796Z,60
2016-11-13T09:54:42.148Z,60
2016-11-13T09:55:52.495Z,60
2016-11-13T09:57:02.844Z,60
2016-11-13T09:58:12.248Z,60
2016-11-13T09:59:21.977Z,60
2016-11-13T10:00:32.335Z,60
2016-11-13T10:01:42.349Z,60
2016-11-13T10:02:52.063Z,60
2016-11-13T10:04:02.208Z,60
2016-11-13T10:05:12.227Z,60
2016-11-13T10:06:21.676Z,65
2016-11-13T10:07:31.509Z,65
2016-11-13T10:08:42.077Z,65
2016-11-13T10:09:52.107Z,65
2016-11-13T10:11:01.879Z,65
2016-11-13T10:12:12.016Z,65
2016-11-13T10:13:22.350Z,65
2016-11-13T10:14:32.704Z,65
2016-11-13T10:15:42.764Z,65
2016-11-13T10:16:52.467Z,65
2016-11-13T10:18:02.259Z,65
2016-11-13T10:19:12.416Z,70
2016-11-13T10:20:22.541Z,70
2016-11-13T10:21:32.603Z,70
2016-11-13T10:22:42.659Z,70
2016-11-13T10:23:52.717Z,70
2016-11-13T10:25:02.192Z,70
2016-11-13T10:26:12.530Z,70
2016-11-13T10:27:22.867Z,70
2016-11-13T10:28:32.889Z,70
2016-11-13T10:29:42.977Z,70
2016-11-13T10:30:52.375Z,70
2016-11-13T10:32:01.829Z,70
2016-11-13T10:33:12.177Z,70
2016-11-13T10:34:21.947Z,70
2016-11-13T10:35:31.777Z,70
2016-11-13T10:36:42.107Z,70
2016-11-13T10:37:52.146Z,70
2016-11-13T10:39:02.496Z,70
2016-11-13T10:40:12.523Z,70
2016-11-13T10:41:22.266Z,70
2016-11-13T10:42:32.458Z,70
2016-11-13T10:43:42.592Z,75
2016-11-13T10:44:52.618Z,75
2016-11-13T10:46:02.950Z,75
2016-11-13T10:47:13.128Z,75
2016-11-13T10:48:23.157Z,75
2016-11-13T10:49:33.079Z,75
2016-11-13T10:50:43.557Z,75
2016-11-13T10:51:54.173Z,75
2016-11-13T10:53:04.415Z,75
2016-11-13T10:54:14.296Z,75
2016-11-13T10:55:24.340Z,75
2016-11-13T10:56:34.426Z,75
2016-11-13T10:57:44.163Z,75
2016-11-13T10:58:54.568Z,75
2016-11-13T11:00:04.701Z,75
2016-11-13T11:01:15.156Z,75
2016-11-13T11:02:24.877Z,75
2016-11-13T11:03:34.335Z,75
2016-11-13T11:04:44.459Z,70
2016-11-13T11:05:54.852Z,70
2016-11-13T11:07:04.701Z,70
2016-11-13T11:08:15.117Z,70
2016-11-13T11:09:25.177Z,70
2016-11-13T11:10:35.328Z,70
2016-11-13T11:11:45.344Z,70
2016-11-13T11:12:55.074Z,70
2016-11-13T11:14:05.128Z,70
2016-11-13T11:15:15.167Z,70
2016-11-13T11:16:25.220Z,65
2016-11-13T11:17:34.941Z,65
2016-11-13T11:18:45.312Z,65
2016-11-13T11:19:55.807Z,65
2016-11-13T11:21:06.188Z,65
2016-11-13T11:22:16.437Z,65
2016-11-13T11:23:26.939Z,65
2016-11-13T11:24:37.294Z,65
2016-11-13T11:25:47.316Z,65
2016-11-13T11:26:57.559Z,65
2016-11-13T11:28:07.912Z,65
2016-11-13T11:29:17.677Z,65
2016-11-13T11:30:27.718Z,65
2016-11-13T11:31:37.866Z,65
2016-11-13T11:32:48.259Z,65
2016-11-13T11:33:58.330Z,65
2016-11-13T11:35:08.389Z,70
2016-11-13T11:36:17.816Z,65
2016-11-13T11:37:28.180Z,65
2016-11-13T11:38:38.513Z,70
2016-11-13T11:39:48.247Z,70
2016-11-13T11:40:58.379Z,70
2016-11-13T11:42:08.520Z,70
2016-11-13T11:43:18.589Z,70
2016-11-13T11:44:28.617Z,70
2016-11-13T11:45:39.051Z,75
2016-11-13T11:46:49.498Z,75
2016-11-13T11:48:00.038Z,75
2016-11-13T11:49:10.405Z,75
2016-11-13T11:50:20.456Z,75
2016-11-13T11:51:30.548Z,75
2016-11-13T11:52:40.045Z,75
2016-11-13T11:53:50.173Z,75
2016-11-13T11:55:00.522Z,25
2016-11-13T12:14:23.753Z,200
2016-11-13T12:15:34.137Z,195
2016-11-13T12:16:43.948Z,195
2016-11-13T12:17:54.676Z,190
2016-11-13T12:19:04.208Z,190
2016-11-13T12:20:14.301Z,190
2016-11-13T12:21:24.884Z,180
2016-11-13T12:22:35.297Z,180
2016-11-13T12:23:45.213Z,175
2016-11-13T12:24:55.317Z,175
2016-11-13T12:26:05.709Z,170
2016-11-13T12:27:16.061Z,170
2016-11-13T12:28:26.147Z,170
2016-11-13T12:29:36.488Z,170
2016-11-13T12:30:46.857Z,165
2016-11-13T12:31:56.848Z,165
2016-11-13T12:33:07.196Z,165
2016-11-13T12:34:16.797Z,165
2016-11-13T12:35:27.136Z,165
2016-11-13T12:36:37.632Z,165
2016-11-13T12:37:47.955Z,165
2016-11-13T12:38:58.289Z,165
2016-11-13T12:40:08.630Z,165
2016-11-13T12:41:19.117Z,165
2016-11-13T12:42:29.006Z,165
2016-11-13T12:43:40.040Z,160
2016-11-13T12:44:49.800Z,160
2016-11-13T12:45:59.758Z,160
2016-11-13T12:47:09.787Z,160
2016-11-13T12:48:20.139Z,155
2016-11-13T12:49:29.589Z,155
2016-11-13T12:50:39.296Z,150
2016-11-13T12:51:49.677Z,150
2016-11-13T12:52:59.115Z,145
2016-11-13T12:54:08.537Z,145
2016-11-13T12:55:17.976Z,140
2016-11-13T12:56:28.016Z,140
2016-11-13T12:57:38.360Z,135
2016-11-13T12:58:48.707Z,135
2016-11-13T12:59:59.122Z,130
2016-11-13T13:01:09.446Z,130
2016-11-13T13:02:20.344Z,125
2016-11-13T13:03:30.358Z,125
2016-11-13T13:04:40.383Z,125
2016-11-13T13:05:50.508Z,125
2016-11-13T13:07:00.677Z,125
2016-11-13T13:08:10.760Z,125
2016-11-13T13:09:21.149Z,125
2016-11-13T13:10:31.596Z,125
2016-11-13T13:11:41.696Z,130
2016-11-13T13:12:51.977Z,130
2016-11-13T13:14:02.009Z,130
2016-11-13T13:15:12.068Z,130
2016-11-13T13:16:22.777Z,130
2016-11-13T13:17:33.128Z,130
2016-11-13T13:18:43.262Z,130
2016-11-13T13:19:52.976Z,130
2016-11-13T13:21:03.051Z,135
2016-11-13T13:22:13.158Z,135
2016-11-13T13:23:23.214Z,135
2016-11-13T13:24:33.274Z,140
2016-11-13T13:25:42.708Z,140
2016-11-13T13:26:52.720Z,140
2016-11-13T13:28:03.058Z,140
2016-11-13T13:29:13.091Z,140
2016-11-13T13:30:23.591Z,140
2016-11-13T13:31:33.656Z,140
2016-11-13T13:32:43.364Z,145
2016-11-13T13:33:53.132Z,145
2016-11-13T13:35:03.487Z,145
2016-11-13T13:36:13.534Z,150
2016-11-13T13:37:23.528Z,150
2016-11-13T13:38:33.539Z,150
2016-11-13T13:39:43.675Z,150
2016-11-13T13:40:54.047Z,150
2016-11-13T13:42:04.424Z,150
2016-11-13T13:43:14.759Z,150
2016-11-13T13:44:24.828Z,145
2016-11-13T13:45:34.865Z,145
2016-11-13T13:46:45.235Z,145
2016-11-13T13:47:55.901Z,150
2016-11-13T13:49:06.258Z,145
2016-11-13T13:50:15.958Z,145
2016-11-13T13:51:26.393Z,145
2016-11-13T13:52:35.828Z,145
2016-11-13T13:53:45.951Z,145
2016-11-13T13:54:56.318Z,145
2016-11-13T13:56:06.675Z,140
2016-11-13T13:57:17.042Z,140
2016-11-13T13:58:27.067Z,135
2016-11-13T13:59:36.766Z,135
2016-11-13T14:00:47.150Z,130
2016-11-13T14:01:57.319Z,125
2016-11-13T14:03:07.795Z,125
2016-11-13T14:04:17.215Z,125
2016-11-13T14:05:27.274Z,120
2016-11-13T14:06:37.739Z,115
2016-11-13T14:07:48.073Z,110
2016-11-13T14:08:57.829Z,105
2016-11-13T14:10:07.880Z,105
2016-11-13T14:11:18.299Z,105
2016-11-13T14:12:28.658Z,105
2016-11-13T14:13:39.096Z,100
2016-11-13T14:14:49.558Z,100
2016-11-13T14:15:59.660Z,100
2016-11-13T14:17:09.499Z,95
2016-11-13T14:18:19.860Z,95
2016-11-13T14:19:29.910Z,95
2016-11-13T14:20:39.749Z,95
2016-11-13T14:21:49.880Z,95
2016-11-13T14:23:00.045Z,90
2016-11-13T14:24:10.495Z,90
2016-11-13T14:25:20.536Z,90
2016-11-13T14:26:30.584Z,90
2016-11-13T14:27:40.983Z,90
2016-11-13T14:28:51.326Z,85
2016-11-13T14:30:01.379Z,85
2016-11-13T14:31:11.520Z,85
2016-11-13T14:32:21.549Z,85
2016-11-13T14:33:31.586Z,80
2016-11-13T14:34:41.935Z,80
2016-11-13T14:35:52.282Z,80
2016-11-13T14:37:02.419Z,75
2016-11-13T14:38:12.658Z,75
2016-11-13T14:39:23.119Z,75
2016-11-13T14:40:33.850Z,75
2016-11-13T14:41:44.437Z,70
2016-11-13T14:42:54.850Z,70
2016-11-13T14:44:05.205Z,70
2016-11-13T14:45:14.976Z,65
2016-11-13T14:46:25.328Z,65
2016-11-13T14:47:35.146Z,65
2016-11-13T14:48:44.853Z,60
2016-11-13T14:49:54.901Z,60
2016-11-13T14:51:05.250Z,60
2016-11-13T14:52:15.840Z,55
2016-11-13T14:53:26.323Z,55
2016-11-13T14:54:36.671Z,55
2016-11-13T14:55:47.021Z,50
2016-11-13T14:56:57.054Z,50
2016-11-13T14:58:06.777Z,50
2016-11-13T14:59:16.531Z,45
2016-11-13T15:00:26.556Z,45
2016-11-13T15:01:36.891Z,45
2016-11-13T15:02:47.288Z,40
2016-11-13T15:03:56.999Z,40
2016-11-13T15:05:06.435Z,35
2016-11-13T15:06:16.796Z,35
2016-11-13T15:07:27.116Z,35
2016-11-13T15:08:36.558Z,30
2016-11-13T15:09:46.921Z,30
2016-11-13T15:10:56.951Z,30
2016-11-13T15:12:06.353Z,30
2016-11-13T15:13:16.705Z,25
2016-11-13T15:14:27.103Z,25
2016-11-13T15:15:37.486Z,25
2016-11-13T15:16:47.857Z,25
2016-11-13T15:17:57.633Z,20
2016-11-13T15:19:07.976Z,20
2016-11-13T15:20:18.023Z,20
2016-11-13T15:21:28.353Z,20
2016-11-13T15:22:38.079Z,15
2016-11-13T15:23:48.226Z,15
2016-11-13T15:24:58.009Z,15
2016-11-13T15:26:07.405Z,15
2016-11-13T15:27:17.451Z,10
2016-11-13T15:28:26.938Z,10
2016-11-13T15:29:36.990Z,10
2016-11-13T15:30:46.712Z,10
2016-11-13T15:31:57.060Z,10
2016-11-13T15:33:07.102Z,5
2016-11-13T15:34:17.714Z,5
2016-11-13T15:35:28.086Z,5
2016-11-13T15:36:37.846Z,5
2016-11-13T15:37:48.234Z,5
2016-11-13T15:38:58.454Z,5
2016-11-13T15:40:08.626Z,0
2016-11-13T15:41:18.626Z,0
2016-11-13T15:42:28.699Z,0
2016-11-13T15:43:39.094Z,0
2016-11-13T15:44:49.091Z,0
2016-11-13T15:45:59.158Z,0
2016-11-13T15:47:09.609Z,0
2016-11-13T15:48:19.671Z,0
2016-11-13T15:49:29.691Z,0
2016-11-13T15:50:39.700Z,0
2016-11-13T15:51:49.752Z,0
2016-11-13T15:53:00.082Z,0
2016-11-13T15:54:10.539Z,0
2016-11-13T15:55:20.817Z,0
2016-11-13T15:56:30.959Z,0
2016-11-13T15:57:40.686Z,0
2016-11-13T15:58:51.065Z,0
2016-11-13T16:00:01.144Z,0
2016-11-13T16:01:11.468Z,0
2016-11-13T16:02:21.809Z,0
2016-11-13T16:03:32.182Z,0
2016-11-13T16:04:42.542Z,0
2016-11-13T16:05:52.852Z,0
2016-11-13T16:07:02.579Z,0
2016-11-13T16:08:12.296Z,0
2016-11-13T16:09:22.049Z,0
2016-11-13T16:10:33.815Z,0
2016-11-13T16:11:44.175Z,0
2016-11-13T16:12:54.258Z,0
2016-11-13T16:14:04.690Z,0
2016-11-13T16:15:14.406Z,0
2016-11-13T16:16:24.451Z,0
2016-11-13T16:17:34.904Z,0
2016-11-13T16:18:45.028Z,0
2016-11-13T16:19:55.058Z,0
2016-11-13T16:21:05.122Z,0
2016-11-13T16:22:15.425Z,0
2016-11-13T16:23:25.904Z,0
2016-11-13T16:24:35.642Z,0
2016-11-13T16:25:46.029Z,0
2016-11-13T16:26:56.041Z,0
2016-11-13T16:28:05.905Z,0
2016-11-13T16:29:15.941Z,0
2016-11-13T16:30:26.501Z,0
2016-11-13T16:31:36.838Z,0
2016-11-13T16:32:46.640Z,0
2016-11-13T16:33:57.109Z,0
2016-11-13T16:35:07.497Z,0
2016-11-13T16:36:17.631Z,0
2016-11-13T16:37:27.698Z,0
2016-11-13T16:38:37.417Z,0
2016-11-13T16:39:47.429Z,0
2016-11-13T16:40:57.469Z,0
2016-11-13T16:42:07.811Z,0
2016-11-13T16:43:17.871Z,0
2016-11-13T16:44:27.268Z,0
2016-11-13T16:45:37.293Z,0
2016-11-13T16:46:47.371Z,0
2016-11-13T16:47:57.793Z,0
2016-11-13T16:49:07.821Z,0
2016-11-13T16:50:18.216Z,0
2016-11-13T16:51:28.989Z,0
2016-11-13T16:52:39.388Z,0
2016-11-13T16:53:49.881Z,0
2016-11-13T16:55:00.231Z,0
2016-11-13T16:56:09.985Z,0
2016-11-13T16:57:20.012Z,0
2016-11-13T16:58:30.349Z,0
2016-11-13T16:59:40.555Z,0
2016-11-13T17:00:49.662Z,0
2016-11-13T17:01:59.369Z,0
2016-11-13T17:03:09.431Z,0
2016-11-13T17:04:19.910Z,0
2016-11-13T17:05:30.292Z,0
2016-11-13T17:06:40.668Z,0
2016-11-13T17:07:50.734Z,0
2016-11-13T17:09:01.440Z,0
2016-11-13T17:10:11.892Z,0
2016-11-13T17:11:22.274Z,0